KASE/ASE METAR and TAF weather

Enter ICAO airport designator
Station Type Date Time Source
KASE METAR 2022/06/27 08:53 UTC NOAA

KASE 270853Z AUTO 20003KT 10SM CLR 07/05 A3051 RMK AO2 SLP235 T00670050 57003


Station Type Date Time Source
KASE Decoded METAR 2022/06/27 08:53 UTC NOAA

ASPEN-PITKIN COUNTY AIRPORT, CO, United States (KASE) 39-14N 106-52W 2354M
Jun 27, 2022 - 04:53 AM EDT / 2022.06.27 0853 UTC
Wind: from the SSW (200 degrees) at 3 MPH (3 KT):0
Visibility: 10 mile(s):0
Sky conditions: clear
Temperature: 44.1 F (6.7 C)
Dew Point: 41.0 F (5.0 C)
Relative Humidity: 88%
Pressure (altimeter): 30.51 in. Hg (1033 hPa)
Pressure tendency: 0.01 inches (0.3 hPa) lower than three hours ago
ob: KASE 270853Z AUTO 20003KT 10SM CLR 07/05 A3051 RMK AO2 SLP235 T00670050 57003
cycle: 9

Station Type Date Time Source
KASE TAF 2022/06/27 06:28 UTC NOAA

TAF KASE 270526Z 2706/2806 15005KT P6SM SCT080 SCT200
FM271800 32009KT P6SM VCSH FEW060 FEW250
FM272200 34011KT P6SM FEW100 SCT250
FM280300 17007KT P6SM FEW080 FEW200

Example: see airport list